Time;durP1;ratioP1;P1;durP2;ratioP2;P2;SDS_P1;SDS_P2;PMS_P1;PMS_P2;Temp;Humidity;BMP_temperature;BMP_pressure;BME280_temperature;BME280_humidity;BME280_pressure;Samples;Min_cycle;Max_cycle;Signal;HPM_P1;HPM_P2
2023/02/22 00:00:21;;;;;;;12.37;7.93;;;;;;;11.77;48.66;97359.81;4943678;28;20450;-72
2023/02/22 00:02:48;;;;;;;9.03;6.40;;;;;;;11.77;48.90;97351.94;4968987;28;20445;-71
2023/02/22 00:05:18;;;;;;;13.43;7.00;;;;;;;11.68;49.51;97352.88;4960227;28;20444;-71
2023/02/22 00:07:47;;;;;;;15.07;7.07;;;;;;;11.58;50.16;97354.81;4962743;28;20442;-71
2023/02/22 00:10:19;;;;;;;11.87;6.73;;;;;;;11.65;49.79;97350.56;4958213;28;20458;-72
2023/02/22 00:12:47;;;;;;;11.77;6.90;;;;;;;11.68;49.55;97352.88;4962876;28;20457;-71
2023/02/22 00:15:13;;;;;;;12.73;6.40;;;;;;;11.67;49.63;97351.25;4959086;28;20497;-71
2023/02/22 00:17:39;;;;;;;10.30;6.50;;;;;;;11.64;50.24;97352.38;4954226;28;20449;-71
2023/02/22 00:20:06;;;;;;;10.73;6.00;;;;;;;11.58;50.50;97344.28;4962413;28;20442;-71
2023/02/22 00:22:32;;;;;;;14.10;6.10;;;;;;;11.63;49.75;97347.25;4953947;28;20189;-71
2023/02/22 00:24:57;;;;;;;17.37;6.90;;;;;;;11.71;49.49;97343.88;4951099;28;20444;-70
2023/02/22 00:27:23;;;;;;;14.63;6.03;;;;;;;11.75;49.12;97345.22;4949702;28;20776;-71
2023/02/22 00:29:48;;;;;;;11.20;5.87;;;;;;;11.72;49.37;97343.69;4950247;28;20260;-70
2023/02/22 00:32:14;;;;;;;10.00;6.33;;;;;;;11.74;49.02;97333.06;4950658;28;20309;-70
2023/02/22 00:34:40;;;;;;;8.50;5.93;;;;;;;11.64;49.51;97338.41;4941514;29;20269;-71
2023/02/22 00:37:05;;;;;;;11.00;5.80;;;;;;;11.66;49.28;97342.53;4950007;28;20191;-70
2023/02/22 00:39:31;;;;;;;11.67;6.87;;;;;;;11.59;50.06;97332.81;4952935;28;20268;-70
2023/02/22 00:41:56;;;;;;;12.27;6.00;;;;;;;11.64;50.25;97333.16;4950776;28;20211;-70
2023/02/22 00:44:22;;;;;;;10.33;6.00;;;;;;;11.63;50.13;97332.34;4957969;28;20272;-71
2023/02/22 00:46:48;;;;;;;12.80;5.73;;;;;;;11.60;49.78;97332.66;4950603;28;20709;-71
2023/02/22 00:49:15;;;;;;;9.63;5.63;;;;;;;11.51;50.09;97334.41;4956702;28;20202;-71
2023/02/22 00:51:40;;;;;;;11.40;6.20;;;;;;;11.52;50.04;97328.19;4950083;28;20462;-70
2023/02/22 00:54:06;;;;;;;11.33;5.80;;;;;;;11.56;50.00;97331.31;4949921;28;20517;-71
2023/02/22 00:56:36;;;;;;;9.83;5.90;;;;;;;11.62;50.04;97330.69;4950150;28;20265;-71
2023/02/22 00:59:02;;;;;;;13.70;8.10;;;;;;;11.58;49.51;97318.84;4950044;28;20210;-71
2023/02/22 01:01:27;;;;;;;15.20;10.30;;;;;;;11.50;49.70;97322.25;4949919;28;20442;-71
2023/02/22 01:03:53;;;;;;;12.30;7.53;;;;;;;11.55;49.38;97323.59;4950459;28;20484;-72
2023/02/22 01:06:18;;;;;;;12.87;6.30;;;;;;;11.52;49.82;97320.31;4950200;28;20194;-72
2023/02/22 01:08:45;;;;;;;14.43;6.77;;;;;;;11.51;49.94;97318.66;4952519;28;20194;-70
2023/02/22 01:11:11;;;;;;;10.33;6.00;;;;;;;11.55;49.52;97318.34;4956769;28;20228;-71
2023/02/22 01:13:37;;;;;;;10.07;6.03;;;;;;;11.47;49.71;97319.94;4949555;28;20442;-70
2023/02/22 01:16:02;;;;;;;9.43;5.70;;;;;;;11.47;49.83;97312.06;4951213;28;20484;-70
2023/02/22 01:18:28;;;;;;;11.10;6.10;;;;;;;11.40;49.97;97305.81;4955151;28;20436;-70
2023/02/22 01:20:53;;;;;;;7.30;4.90;;;;;;;11.38;50.51;97310.38;4961767;28;20709;-70
2023/02/22 01:23:19;;;;;;;9.30;4.87;;;;;;;11.42;50.24;97308.25;4955333;28;20217;-69
2023/02/22 01:25:44;;;;;;;11.77;5.13;;;;;;;11.31;50.24;97312.78;4973204;28;20221;-69
2023/02/22 01:28:10;;;;;;;12.57;4.97;;;;;;;11.25;50.55;97315.22;4953392;28;20187;-71
2023/02/22 01:30:35;;;;;;;7.60;4.90;;;;;;;11.10;51.18;97307.09;4953915;28;20213;-70
2023/02/22 01:33:02;;;;;;;8.77;5.10;;;;;;;11.06;51.05;97301.31;4953423;28;20261;-70
2023/02/22 01:35:30;;;;;;;8.73;4.30;;;;;;;11.06;50.99;97306.56;4953634;28;20182;-70
2023/02/22 01:37:57;;;;;;;7.10;4.40;;;;;;;11.09;51.30;97300.19;4957925;28;21073;-69
2023/02/22 01:40:29;;;;;;;6.90;4.60;;;;;;;11.13;51.00;97297.09;4951117;28;20462;-69
2023/02/22 01:42:57;;;;;;;7.20;4.40;;;;;;;11.18;50.85;97294.84;4954242;28;20462;-68
2023/02/22 01:45:28;;;;;;;10.73;4.70;;;;;;;11.23;50.46;97283.91;4955293;28;20513;-69
2023/02/22 01:48:18;;;;;;;10.00;4.63;;;;;;;11.25;50.27;97284.56;4954969;28;21090;-69
2023/02/22 01:51:14;;;;;;;9.57;4.80;;;;;;;11.19;50.19;97283.38;4948420;28;20469;-69
2023/02/22 01:53:51;;;;;;;12.47;5.03;;;;;;;11.20;49.96;97279.78;4925299;29;20509;-70
2023/02/22 01:56:17;;;;;;;9.03;4.47;;;;;;;11.19;50.24;97278.13;4961932;28;20432;-70
2023/02/22 01:58:46;;;;;;;7.30;4.80;;;;;;;11.09;50.25;97277.38;4968402;28;20431;-70
2023/02/22 02:01:12;;;;;;;8.50;4.40;;;;;;;11.12;50.05;97274.47;4955220;28;20450;-69
2023/02/22 02:03:38;;;;;;;7.07;4.50;;;;;;;11.10;50.26;97275.59;4953598;28;20473;-70
2023/02/22 02:06:07;;;;;;;7.40;4.20;;;;;;;11.10;50.57;97263.31;4936525;28;20488;-72
2023/02/22 02:08:58;;;;;;;11.30;5.80;;;;;;;11.12;50.54;97263.97;4939016;28;20422;-70
2023/02/22 02:11:25;;;;;;;13.80;5.13;;;;;;;11.09;50.89;97256.41;4928328;28;20556;-71
2023/02/22 02:13:53;;;;;;;13.83;5.10;;;;;;;11.05;50.92;97255.09;4938838;29;20458;-71
2023/02/22 02:16:20;;;;;;;11.20;5.53;;;;;;;11.05;50.94;97255.09;4941204;28;20436;-71
2023/02/22 02:18:46;;;;;;;8.70;4.97;;;;;;;11.04;50.51;97254.25;4956365;28;20461;-72
2023/02/22 02:21:30;;;;;;;12.93;5.50;;;;;;;11.00;50.71;97252.09;4941638;28;20449;-71
2023/02/22 02:24:38;;;;;;;14.27;4.90;;;;;;;11.03;51.27;97252.59;4947766;28;20192;-71
2023/02/22 02:27:09;;;;;;;7.97;6.13;;;;;;;10.91;51.51;97246.81;4897116;28;20444;-69
2023/02/22 02:29:58;;;;;;;8.03;5.63;;;;;;;10.90;51.84;97244.31;4951082;28;20501;-70
2023/02/22 02:32:35;;;;;;;11.47;5.43;;;;;;;10.87;51.65;97237.59;4955832;28;20462;-71
2023/02/22 02:35:10;;;;;;;12.07;7.00;;;;;;;10.84;52.04;97245.75;4935347;28;20549;-71
2023/02/22 02:37:53;;;;;;;10.17;6.67;;;;;;;10.70;52.51;97241.09;4950687;28;20457;-70
2023/02/22 02:40:40;;;;;;;11.43;6.80;;;;;;;10.87;52.39;97234.97;4949495;28;20448;-70
2023/02/22 02:43:16;;;;;;;12.17;6.37;;;;;;;10.89;52.22;97240.06;4937361;29;20456;-70
2023/02/22 02:45:47;;;;;;;11.00;7.10;;;;;;;11.01;52.06;97227.50;4935565;29;20418;-70
2023/02/22 02:48:14;;;;;;;10.53;6.83;;;;;;;11.07;51.70;97229.53;4971852;28;20430;-70
2023/02/22 02:50:44;;;;;;;16.27;7.47;;;;;;;11.10;51.39;97228.41;4955191;28;21130;-70
2023/02/22 02:53:10;;;;;;;17.13;7.43;;;;;;;10.99;51.67;97218.97;4935012;29;20429;-70
2023/02/22 02:55:36;;;;;;;12.97;7.80;;;;;;;11.04;51.38;97227.22;4934808;28;20422;-69
2023/02/22 02:58:06;;;;;;;11.83;7.43;;;;;;;10.98;51.90;97222.56;4952358;28;20425;-71
2023/02/22 03:00:38;;;;;;;12.77;7.33;;;;;;;10.95;51.48;97218.47;4950194;28;20210;-70
2023/02/22 03:03:48;;;;;;;11.50;6.93;;;;;;;10.71;52.55;97222.56;4938649;29;20462;-70
2023/02/22 03:06:29;;;;;;;14.90;7.03;;;;;;;10.84;52.16;97209.03;4937247;28;20477;-71
2023/02/22 03:08:57;;;;;;;10.07;6.30;;;;;;;10.90;51.43;97212.84;4946723;28;20421;-72
2023/02/22 03:11:33;;;;;;;10.97;6.57;;;;;;;10.97;51.07;97206.03;4951375;28;21147;-71
2023/02/22 03:14:10;;;;;;;19.00;6.83;;;;;;;10.93;50.95;97207.31;4920655;29;20450;-71
2023/02/22 03:16:45;;;;;;;13.63;7.10;;;;;;;10.96;51.12;97208.81;4951553;28;20430;-72
2023/02/22 03:19:21;;;;;;;14.13;7.13;;;;;;;10.97;51.21;97205.19;4934528;29;20448;-71
2023/02/22 03:21:52;;;;;;;9.47;6.13;;;;;;;10.95;51.23;97209.78;4948888;28;20971;-70
2023/02/22 03:24:26;;;;;;;9.27;6.73;;;;;;;10.89;51.45;97203.38;4956632;28;20454;-71
2023/02/22 03:27:08;;;;;;;11.30;7.10;;;;;;;10.84;51.44;97206.44;4945273;28;20469;-71
2023/02/22 03:29:37;;;;;;;14.23;6.73;;;;;;;10.73;51.61;97204.91;4950829;28;20565;-73
2023/02/22 03:32:07;;;;;;;12.17;7.30;;;;;;;10.58;51.88;97196.78;4972795;28;20519;-71
2023/02/22 03:34:36;;;;;;;14.53;7.60;;;;;;;10.61;52.16;97200.88;4951138;28;20434;-72
2023/02/22 03:37:06;;;;;;;14.27;7.07;;;;;;;10.66;51.84;97195.19;4947125;28;20431;-71
2023/02/22 03:39:33;;;;;;;15.17;7.27;;;;;;;10.74;51.63;97195.22;4964255;28;21262;-71
2023/02/22 03:42:03;;;;;;;21.07;7.30;;;;;;;10.77;51.62;97189.69;4940410;28;20429;-71
2023/02/22 03:44:31;;;;;;;12.30;6.57;;;;;;;10.67;51.35;97194.19;4933814;28;20461;-71
2023/02/22 03:47:00;;;;;;;11.40;6.80;;;;;;;10.48;52.41;97190.78;4951140;28;20512;-71
2023/02/22 03:49:43;;;;;;;13.90;7.53;;;;;;;10.60;51.91;97183.50;4936154;28;20438;-71
2023/02/22 03:52:11;;;;;;;9.90;6.40;;;;;;;10.55;51.55;97191.84;4972286;28;20515;-72
2023/02/22 03:54:37;;;;;;;14.37;7.83;;;;;;;10.50;51.58;97186.22;4954329;28;20438;-72
2023/02/22 03:57:24;;;;;;;10.47;7.77;;;;;;;10.49;51.48;97202.09;4934168;29;20446;-71
2023/02/22 03:59:50;;;;;;;11.37;7.10;;;;;;;10.43;52.03;97193.84;4946897;28;20425;-71
2023/02/22 04:02:17;;;;;;;10.10;7.67;;;;;;;10.34;52.05;97196.53;4962357;28;20432;-72
2023/02/22 04:04:44;;;;;;;13.23;6.50;;;;;;;10.37;52.07;97188.38;4956340;28;20555;-71
2023/02/22 04:07:10;;;;;;;12.67;7.80;;;;;;;10.41;51.77;97190.56;4962865;28;20432;-72
2023/02/22 04:09:36;;;;;;;10.10;7.10;;;;;;;10.41;51.68;97195.00;4956020;28;20542;-72
2023/02/22 04:12:01;;;;;;;18.63;7.27;;;;;;;10.42;51.66;97188.78;4954464;28;20217;-71
2023/02/22 04:14:26;;;;;;;11.07;7.63;;;;;;;10.45;52.06;97191.09;4951478;28;20293;-70
2023/02/22 04:16:52;;;;;;;11.07;7.80;;;;;;;10.45;51.67;97188.47;4955368;28;20827;-70
2023/02/22 04:19:17;;;;;;;13.60;7.57;;;;;;;10.40;52.07;97194.16;4955876;28;20187;-70
2023/02/22 04:21:43;;;;;;;12.53;7.50;;;;;;;10.44;51.90;97194.69;4960412;28;20232;-70
2023/02/22 04:24:08;;;;;;;10.93;7.67;;;;;;;10.42;51.57;97191.41;4955437;28;20281;-70
2023/02/22 04:26:34;;;;;;;13.90;7.27;;;;;;;10.36;51.79;97184.94;4934506;28;20193;-72
2023/02/22 04:28:59;;;;;;;16.23;6.60;;;;;;;10.26;51.51;97181.59;4950288;28;20592;-71
2023/02/22 04:31:25;;;;;;;13.53;7.27;;;;;;;10.19;52.15;97181.38;4956738;28;20220;-71
2023/02/22 04:33:50;;;;;;;13.77;6.97;;;;;;;10.19;51.83;97176.13;4939934;28;20201;-71
2023/02/22 04:36:15;;;;;;;12.20;6.93;;;;;;;10.18;51.77;97184.13;4950001;28;20215;-71
2023/02/22 04:38:42;;;;;;;13.80;8.17;;;;;;;10.06;52.16;97180.91;4948603;28;20187;-71
2023/02/22 04:41:07;;;;;;;14.37;8.43;;;;;;;9.94;53.01;97182.91;4950177;28;20208;-71
2023/02/22 04:43:33;;;;;;;14.27;8.00;;;;;;;9.86;52.97;97186.28;4955839;28;20497;-71
2023/02/22 04:45:58;;;;;;;14.67;6.60;;;;;;;9.90;53.32;97185.00;4949955;28;20221;-70
2023/02/22 04:48:24;;;;;;;12.23;7.37;;;;;;;9.86;52.63;97183.66;4948650;28;20265;-71
2023/02/22 04:50:50;;;;;;;13.00;8.07;;;;;;;9.71;53.44;97178.09;4948736;28;20297;-70
2023/02/22 04:53:16;;;;;;;15.23;7.70;;;;;;;9.71;53.35;97183.34;4949387;28;20683;-70
2023/02/22 04:55:41;;;;;;;13.63;7.20;;;;;;;9.63;53.62;97180.66;4949172;28;20422;-70
2023/02/22 04:58:07;;;;;;;10.93;7.80;;;;;;;9.62;53.47;97187.66;4930910;29;20274;-70
2023/02/22 05:00:32;;;;;;;15.97;7.93;;;;;;;9.71;53.34;97178.09;4949002;28;20202;-70
2023/02/22 05:02:58;;;;;;;14.77;8.30;;;;;;;9.78;53.06;97180.97;4943293;28;20194;-71
2023/02/22 05:05:23;;;;;;;16.70;7.97;;;;;;;9.82;53.34;97177.91;4945872;28;20218;-71
2023/02/22 05:07:49;;;;;;;12.13;8.53;;;;;;;9.87;52.71;97182.69;4931959;29;20190;-70
2023/02/22 05:10:15;;;;;;;14.70;9.20;;;;;;;9.89;52.23;97178.13;4949266;28;20210;-71
2023/02/22 05:12:40;;;;;;;15.13;8.93;;;;;;;9.87;52.12;97177.44;4954775;28;20186;-71
2023/02/22 05:15:07;;;;;;;12.90;8.67;;;;;;;9.94;51.54;97177.69;4949145;28;20453;-69
2023/02/22 05:17:33;;;;;;;13.97;8.73;;;;;;;9.96;51.67;97173.94;4952598;28;20206;-69
2023/02/22 05:19:58;;;;;;;17.07;8.73;;;;;;;9.94;52.24;97168.03;4948538;28;20449;-70
2023/02/22 05:22:24;;;;;;;12.03;7.93;;;;;;;9.83;52.01;97170.84;4948680;28;20281;-70
2023/02/22 05:24:51;;;;;;;12.70;8.40;;;;;;;9.83;52.41;97168.25;4949050;28;20198;-70
2023/02/22 05:27:17;;;;;;;17.40;8.30;;;;;;;9.82;52.12;97166.63;4949773;28;20209;-71
2023/02/22 05:29:42;;;;;;;14.30;8.73;;;;;;;9.80;52.57;97161.50;4931123;28;20429;-70
2023/02/22 05:32:08;;;;;;;12.63;8.20;;;;;;;9.74;52.72;97162.13;4949474;28;20465;-70
2023/02/22 05:34:33;;;;;;;17.03;8.30;;;;;;;9.53;52.96;97159.75;4951458;28;20249;-71
2023/02/22 05:36:59;;;;;;;18.90;7.47;;;;;;;9.55;53.18;97152.59;4949487;28;20206;-70
2023/02/22 05:39:24;;;;;;;14.33;8.60;;;;;;;9.47;53.76;97155.09;4949513;28;20194;-70
2023/02/22 05:41:50;;;;;;;14.70;8.20;;;;;;;9.46;53.60;97156.91;4952721;28;20636;-71
2023/02/22 05:44:15;;;;;;;14.60;8.67;;;;;;;9.45;53.37;97151.84;4949463;28;20596;-70
2023/02/22 05:46:41;;;;;;;9.70;7.70;;;;;;;9.38;53.96;97152.41;4948594;28;20213;-71
2023/02/22 05:49:06;;;;;;;11.33;8.13;;;;;;;9.50;53.08;97149.59;4948862;28;20270;-71
2023/02/22 05:51:32;;;;;;;13.13;8.30;;;;;;;9.49;53.66;97147.94;4949467;28;20225;-71
2023/02/22 05:53:58;;;;;;;13.43;8.20;;;;;;;9.43;54.13;97153.78;4952778;28;20187;-70
2023/02/22 05:56:25;;;;;;;14.00;7.83;;;;;;;9.34;53.94;97143.19;4949066;28;20194;-70
2023/02/22 05:58:50;;;;;;;15.80;7.90;;;;;;;9.41;54.08;97150.47;4948894;28;20190;-71
2023/02/22 06:01:16;;;;;;;14.83;8.57;;;;;;;9.40;53.72;97149.63;4928784;29;20443;-72
2023/02/22 06:03:41;;;;;;;19.13;8.40;;;;;;;9.35;54.29;97144.84;4949976;28;20190;-70
2023/02/22 06:06:07;;;;;;;15.30;8.60;;;;;;;9.49;53.78;97143.53;4935428;29;20782;-69
2023/02/22 06:08:32;;;;;;;17.47;8.77;;;;;;;9.56;53.86;97145.56;4951231;28;20569;-69
2023/02/22 06:10:58;;;;;;;15.13;7.70;;;;;;;9.56;53.92;97141.16;4952481;28;20210;-70
2023/02/22 06:13:23;;;;;;;16.17;7.90;;;;;;;9.43;53.62;97143.31;4935732;29;20269;-71
2023/02/22 06:15:48;;;;;;;12.53;7.70;;;;;;;9.42;54.33;97149.50;4951835;28;20189;-72
2023/02/22 06:18:14;;;;;;;11.37;8.00;;;;;;;9.27;54.56;97150.00;4959748;28;20182;-71
2023/02/22 06:20:40;;;;;;;12.30;8.20;;;;;;;9.43;54.59;97145.94;4951809;28;20273;-71
2023/02/22 06:23:05;;;;;;;22.37;8.13;;;;;;;9.36;54.49;97150.91;4952160;28;20630;-70
2023/02/22 06:25:31;;;;;;;17.47;9.00;;;;;;;9.45;54.69;97146.59;4951223;28;20194;-72
2023/02/22 06:27:57;;;;;;;17.33;8.63;;;;;;;9.52;54.40;97145.84;4952424;28;20183;-72
2023/02/22 06:30:24;;;;;;;16.37;8.60;;;;;;;9.43;54.32;97148.53;4951227;28;20771;-72
2023/02/22 06:32:49;;;;;;;15.43;9.00;;;;;;;9.49;54.28;97153.16;4948729;28;20434;-72
2023/02/22 06:35:15;;;;;;;10.83;7.80;;;;;;;9.43;54.08;97156.38;4950167;28;20453;-70
2023/02/22 06:37:41;;;;;;;17.23;8.80;;;;;;;9.46;53.76;97158.69;4951845;28;20186;-72
2023/02/22 06:40:07;;;;;;;11.20;7.90;;;;;;;9.51;53.87;97156.47;4951349;28;20840;-71
2023/02/22 06:42:32;;;;;;;16.30;9.10;;;;;;;9.59;53.57;97159.16;4956480;28;20182;-72
2023/02/22 06:44:58;;;;;;;14.73;8.33;;;;;;;9.66;53.66;97162.84;4957941;28;20434;-71
2023/02/22 06:47:23;;;;;;;15.63;8.50;;;;;;;9.58;53.53;97159.31;4952552;28;20186;-71
2023/02/22 06:49:53;;;;;;;12.70;7.53;;;;;;;9.48;54.26;97156.75;4951820;28;20326;-71
2023/02/22 06:52:18;;;;;;;16.97;8.63;;;;;;;9.60;53.84;97165.25;4952642;28;20220;-70
2023/02/22 06:54:44;;;;;;;12.90;7.70;;;;;;;9.68;53.54;97173.16;4951755;28;20517;-70
2023/02/22 06:57:09;;;;;;;12.03;7.50;;;;;;;9.65;54.21;97163.81;4952131;28;20273;-70
2023/02/22 06:59:35;;;;;;;13.03;8.00;;;;;;;9.74;53.82;97166.50;4960848;28;20186;-71
2023/02/22 07:02:02;;;;;;;12.63;8.40;;;;;;;9.83;53.88;97163.84;4951961;28;20204;-71
2023/02/22 07:04:28;;;;;;;12.70;7.47;;;;;;;9.98;53.39;97169.38;4938821;29;20190;-70
2023/02/22 07:06:53;;;;;;;10.50;7.80;;;;;;;10.11;52.90;97174.25;4951625;28;20430;-71
2023/02/22 07:09:19;;;;;;;20.63;8.07;;;;;;;10.25;52.42;97170.28;4933031;28;20266;-70
2023/02/22 07:11:44;;;;;;;15.57;7.40;;;;;;;10.27;52.65;97170.13;4953704;28;20214;-72
2023/02/22 07:14:10;;;;;;;12.33;8.33;;;;;;;10.32;52.53;97173.09;4960669;28;20736;-72
2023/02/22 07:16:35;;;;;;;16.93;9.17;;;;;;;10.33;53.00;97173.94;4952997;28;20186;-72
2023/02/22 07:19:01;;;;;;;22.33;7.97;;;;;;;10.30;52.96;97169.81;4952184;28;20293;-72
2023/02/22 07:21:27;;;;;;;18.73;7.90;;;;;;;10.39;53.13;97166.34;4952063;28;20198;-71
2023/02/22 07:23:54;;;;;;;18.73;8.77;;;;;;;10.43;52.95;97169.47;4951980;28;20710;-71
2023/02/22 07:26:21;;;;;;;14.07;7.90;;;;;;;10.59;52.54;97166.94;4946482;28;20480;-70
2023/02/22 07:28:46;;;;;;;14.23;8.63;;;;;;;10.68;52.41;97170.44;4974953;28;20907;-73
2023/02/22 07:31:12;;;;;;;13.67;8.10;;;;;;;10.73;52.23;97168.19;4948886;28;20455;-74
2023/02/22 07:33:37;;;;;;;14.77;8.90;;;;;;;10.74;52.28;97169.84;4951373;28;20178;-73
2023/02/22 07:36:03;;;;;;;18.50;8.80;;;;;;;10.77;52.60;97163.47;4947923;28;20273;-75
2023/02/22 07:38:28;;;;;;;25.93;9.47;;;;;;;10.82;52.25;97170.84;4935104;28;20189;-74
2023/02/22 07:40:56;;;;;;;19.97;12.90;;;;;;;10.88;52.11;97171.06;4958839;28;20281;-73
2023/02/22 07:43:31;;;;;;;18.70;12.67;;;;;;;10.95;52.75;97180.94;4965978;28;20232;-72
2023/02/22 07:45:58;;;;;;;22.53;11.60;;;;;;;11.00;52.51;97178.66;4960508;28;20433;-72
2023/02/22 07:48:26;;;;;;;13.40;9.60;;;;;;;11.06;52.22;97173.63;4951275;28;20581;-72
2023/02/22 07:50:51;;;;;;;15.53;9.50;;;;;;;11.11;52.41;97175.78;4950888;28;20571;-72
2023/02/22 07:53:19;;;;;;;24.70;10.43;;;;;;;11.20;52.20;97169.59;4934459;29;20483;-72
2023/02/22 07:55:49;;;;;;;17.37;9.77;;;;;;;11.27;52.14;97175.06;4933415;28;20277;-72
2023/02/22 07:58:15;;;;;;;16.50;9.07;;;;;;;11.37;51.98;97174.91;4951131;28;20446;-74
2023/02/22 08:00:42;;;;;;;15.60;9.83;;;;;;;11.36;52.12;97173.25;4933692;28;20456;-72
2023/02/22 08:03:11;;;;;;;22.70;10.23;;;;;;;11.47;51.93;97180.03;4951164;28;20802;-72
2023/02/22 08:05:37;;;;;;;26.97;9.97;;;;;;;11.57;51.72;97174.66;4949135;28;21151;-71
2023/02/22 08:08:04;;;;;;;15.93;9.53;;;;;;;11.63;52.06;97177.47;4952435;28;20434;-72
2023/02/22 08:10:30;;;;;;;19.43;10.40;;;;;;;11.74;52.24;97171.09;4933087;28;20824;-72
2023/02/22 08:12:56;;;;;;;18.23;8.90;;;;;;;11.80;51.47;97178.34;4947192;28;20429;-72
2023/02/22 08:15:23;;;;;;;19.30;9.70;;;;;;;11.96;51.46;97171.47;4955079;28;20213;-71
2023/02/22 08:17:49;;;;;;;16.53;9.33;;;;;;;12.12;51.06;97168.06;4938016;28;20683;-72
2023/02/22 08:20:15;;;;;;;18.83;8.97;;;;;;;12.26;50.54;97174.47;4952311;28;20454;-72
2023/02/22 08:22:43;;;;;;;14.07;8.90;;;;;;;12.36;50.37;97169.88;4951915;28;20421;-71
2023/02/22 08:25:09;;;;;;;11.50;8.80;;;;;;;12.56;49.62;97169.56;4951886;28;20261;-71
2023/02/22 08:27:35;;;;;;;19.27;9.20;;;;;;;12.80;49.35;97162.63;4961052;28;20532;-70
2023/02/22 08:30:00;;;;;;;16.43;9.20;;;;;;;13.05;48.31;97169.47;4954025;28;20206;-73
2023/02/22 08:32:25;;;;;;;18.40;9.10;;;;;;;13.32;47.53;97164.78;4955711;28;20229;-71
2023/02/22 08:34:51;;;;;;;14.77;9.73;;;;;;;13.58;47.45;97168.97;4939711;28;20264;-72
2023/02/22 08:37:17;;;;;;;25.40;10.30;;;;;;;13.80;47.24;97166.53;4959724;28;20190;-71
2023/02/22 08:39:42;;;;;;;16.87;10.60;;;;;;;13.98;47.43;97169.72;4947367;28;20242;-71
2023/02/22 08:42:09;;;;;;;17.00;10.20;;;;;;;14.31;46.49;97162.56;4958971;28;20228;-71
2023/02/22 08:44:35;;;;;;;13.67;10.30;;;;;;;14.60;45.72;97177.66;4959448;28;20190;-71
2023/02/22 08:47:00;;;;;;;21.20;8.90;;;;;;;14.85;44.88;97165.09;4953931;28;20505;-72
2023/02/22 08:49:26;;;;;;;12.77;9.13;;;;;;;15.04;44.08;97168.19;4948908;28;20572;-72
2023/02/22 08:51:51;;;;;;;18.03;9.30;;;;;;;15.17;42.96;97168.38;4955546;28;20277;-72
2023/02/22 08:54:17;;;;;;;17.53;9.00;;;;;;;15.40;42.94;97150.78;4956746;28;20274;-72
2023/02/22 08:56:43;;;;;;;12.33;8.10;;;;;;;15.47;42.68;97157.78;4932737;28;20685;-72
2023/02/22 08:59:08;;;;;;;14.17;8.27;;;;;;;15.68;42.22;97155.38;4949870;28;20202;-71
2023/02/22 09:01:34;;;;;;;11.47;8.13;;;;;;;15.79;41.74;97154.91;4949866;28;20206;-72
2023/02/22 09:04:00;;;;;;;15.13;8.60;;;;;;;15.88;41.70;97159.09;4951754;28;20232;-71
2023/02/22 09:06:25;;;;;;;16.00;7.83;;;;;;;16.17;41.49;97156.50;4950056;28;20182;-72
2023/02/22 09:08:51;;;;;;;10.53;7.70;;;;;;;16.36;41.28;97158.53;4949589;28;20190;-72
2023/02/22 09:11:17;;;;;;;14.20;7.70;;;;;;;16.52;40.28;97156.59;4949926;28;20241;-72
2023/02/22 09:13:42;;;;;;;12.93;8.37;;;;;;;16.53;40.46;97151.13;4956859;28;20272;-72
2023/02/22 09:16:08;;;;;;;12.90;8.80;;;;;;;16.70;40.31;97150.84;4949819;28;20422;-72
2023/02/22 09:18:33;;;;;;;10.73;7.90;;;;;;;17.10;39.86;97150.31;4949970;28;20187;-72
2023/02/22 09:20:59;;;;;;;17.63;8.17;;;;;;;17.24;39.24;97152.03;4954434;28;20199;-72
2023/02/22 09:23:26;;;;;;;18.60;8.30;;;;;;;17.35;39.06;97148.81;4950119;28;20273;-72
2023/02/22 09:25:51;;;;;;;15.03;7.40;;;;;;;17.42;38.42;97151.50;4949191;28;20187;-72
2023/02/22 09:28:17;;;;;;;18.23;8.20;;;;;;;17.51;38.10;97152.16;4949550;28;20496;-72
2023/02/22 09:30:42;;;;;;;13.83;8.27;;;;;;;17.76;37.88;97149.78;4949404;28;20250;-72
2023/02/22 09:33:10;;;;;;;12.60;8.00;;;;;;;17.91;37.54;97143.50;4949909;28;20225;-72
2023/02/22 09:35:40;;;;;;;15.87;8.57;;;;;;;17.96;37.64;97149.00;4949967;28;20613;-73
2023/02/22 09:38:07;;;;;;;13.10;8.13;;;;;;;18.12;37.22;97145.19;4940451;28;20532;-72
2023/02/22 09:40:39;;;;;;;15.43;9.43;;;;;;;18.25;36.94;97147.88;4953059;28;20513;-72
2023/02/22 09:43:34;;;;;;;16.23;9.50;;;;;;;18.40;36.45;97145.00;4956746;28;20461;-72
2023/02/22 09:46:21;;;;;;;20.00;9.23;;;;;;;18.55;36.49;97150.09;4935749;28;20430;-72
2023/02/22 09:49:01;;;;;;;16.90;8.87;;;;;;;18.65;35.88;97141.72;4957262;28;20851;-71
2023/02/22 09:51:34;;;;;;;13.93;8.47;;;;;;;18.78;35.64;97146.19;4968369;28;21073;-72
2023/02/22 09:54:01;;;;;;;14.23;8.40;;;;;;;18.96;35.18;97132.34;4921574;28;20421;-72
2023/02/22 09:56:28;;;;;;;14.40;8.80;;;;;;;19.05;35.10;97132.91;4968244;28;21062;-71
2023/02/22 09:58:56;;;;;;;11.10;8.10;;;;;;;19.20;35.04;97138.00;4954051;28;20472;-71
2023/02/22 10:01:28;;;;;;;11.10;7.20;;;;;;;19.30;35.29;97145.50;4962466;28;20447;-71
2023/02/22 10:04:11;;;;;;;12.87;8.00;;;;;;;19.58;34.74;97134.56;4951650;28;20433;-72
2023/02/22 10:06:38;;;;;;;11.20;7.47;;;;;;;19.71;33.97;97141.66;4949640;28;20594;-71
2023/02/22 10:09:06;;;;;;;9.27;7.00;;;;;;;19.94;33.59;97137.66;4961722;28;20434;-71
2023/02/22 10:11:36;;;;;;;11.80;7.33;;;;;;;19.98;33.48;97132.72;4952980;28;20465;-72
2023/02/22 10:14:34;;;;;;;11.40;7.63;;;;;;;20.02;33.26;97134.78;4957493;28;20426;-72
2023/02/22 10:17:05;;;;;;;11.70;7.10;;;;;;;19.76;32.89;97128.56;4951110;28;20512;-71
2023/02/22 10:19:42;;;;;;;10.43;6.93;;;;;;;19.98;33.31;97133.56;4952720;28;20476;-72
2023/02/22 10:22:17;;;;;;;13.63;7.10;;;;;;;20.22;32.98;97124.00;4949054;28;20471;-72
2023/02/22 10:25:06;;;;;;;11.73;7.03;;;;;;;20.41;32.28;97132.03;4955073;28;20429;-71
2023/02/22 10:27:46;;;;;;;9.13;6.90;;;;;;;20.42;31.90;97128.34;4917157;29;21010;-71
2023/02/22 10:30:31;;;;;;;14.13;7.33;;;;;;;20.40;32.46;97128.56;4929083;29;20482;-71
2023/02/22 10:33:14;;;;;;;14.50;6.90;;;;;;;20.80;32.06;97119.44;4952760;28;21308;-72
2023/02/22 10:35:40;;;;;;;14.50;7.03;;;;;;;20.83;31.33;97124.31;4944158;28;20425;-70
2023/02/22 10:38:15;;;;;;;8.47;7.07;;;;;;;20.57;31.53;97117.34;4935092;28;20484;-74
2023/02/22 10:40:44;;;;;;;11.00;6.37;;;;;;;20.60;31.46;97121.44;4957107;28;20209;-72
2023/02/22 10:43:10;;;;;;;12.60;6.80;;;;;;;20.31;31.89;97113.06;4940387;28;20441;-72
2023/02/22 10:45:36;;;;;;;8.20;6.30;;;;;;;20.12;32.36;97120.19;4932604;29;20474;-71
2023/02/22 10:48:17;;;;;;;10.13;6.90;;;;;;;19.82;32.76;97118.06;4932642;28;20506;-72
2023/02/22 10:50:44;;;;;;;12.03;7.00;;;;;;;19.82;32.84;97110.09;4951819;28;20229;-70
2023/02/22 10:53:11;;;;;;;13.97;7.00;;;;;;;19.97;32.71;97115.16;4952423;28;20985;-72
2023/02/22 10:56:06;;;;;;;13.90;6.53;;;;;;;20.34;32.27;97116.13;4951970;28;20434;-72
2023/02/22 10:58:40;;;;;;;13.50;6.40;;;;;;;20.22;31.88;97109.88;4931811;29;20749;-72
2023/02/22 11:01:22;;;;;;;10.80;6.67;;;;;;;20.26;32.09;97103.88;4923382;28;20454;-72
2023/02/22 11:04:17;;;;;;;15.73;6.73;;;;;;;20.50;32.88;97104.09;4947630;28;21001;-72
2023/02/22 11:06:45;;;;;;;9.63;6.60;;;;;;;20.65;32.47;97109.09;4949244;28;20418;-72
2023/02/22 11:09:12;;;;;;;15.80;7.30;;;;;;;21.03;31.74;97096.66;4949830;28;20435;-72
2023/02/22 11:11:44;;;;;;;13.83;6.90;;;;;;;21.17;31.26;97102.66;4951661;28;20474;-71
2023/02/22 11:14:10;;;;;;;17.70;7.03;;;;;;;21.51;31.21;97092.38;4947964;28;20438;-72
2023/02/22 11:16:52;;;;;;;11.77;6.70;;;;;;;21.51;30.37;97092.38;4951875;28;20484;-72
2023/02/22 11:19:23;;;;;;;12.90;6.87;;;;;;;21.42;30.56;97089.22;4951715;28;20792;-72
2023/02/22 11:21:51;;;;;;;13.83;7.20;;;;;;;21.26;31.05;97084.50;4958942;28;20461;-72
2023/02/22 11:24:18;;;;;;;12.37;7.00;;;;;;;21.08;30.85;97082.66;4934982;29;20803;-73
2023/02/22 11:26:47;;;;;;;11.33;6.93;;;;;;;20.97;31.66;97093.03;4951389;28;20441;-72
2023/02/22 11:29:34;;;;;;;15.13;7.03;;;;;;;20.82;31.41;97084.56;4944559;28;20524;-71
2023/02/22 11:32:20;;;;;;;21.23;7.70;;;;;;;20.78;31.66;97078.09;4957120;28;21215;-73
2023/02/22 11:34:46;;;;;;;12.30;7.80;;;;;;;20.90;31.55;97076.31;4951709;28;20426;-70